الصفحة الرئيسية
METAR-TAF:

METAR-TAF

مطار :

فولغوغراد, روسيا

دائرة عرض: 48-47N, خط طول: 044-22E, ارتفاع: 145 متر

مراقبة الطقس الحالي

تاريخ ووقت الإصدار 12 دقيقة قبل الساعة 01:00UTC
ريح 4 عقدة من الشمال
درجة الحرارة 19°درجة مئوية
الرطوبة 49%
ضغط 1015 hPa
الرؤية 10 كم أو أكثر
الغيوم لا تقل 1500 م ولا وجود لمزنة ركامية السحاب الأسود

METAR: URWW 170100Z 01002MPS CAVOK 19/08 Q1015 R06/010070 NOSIG

زمن: 04:12 (01:12 UTC)

توقعات

تاريخ ووقت الإصدار 2ساعات و 14 دقيقة قبل الساعة 22:58UTC
التوقعات صالحة من17 الساعة 00 UTC إلى 17 الساعة 09 UTC
ريح 6 عقدة من الشرق تتزايد حتى 16 عقدة
الرؤية 10 كم أو أكثر
غيوم متفرقة على ارتفاع 4000 قدم
مؤقت
من 17 الساعة 00 UTC إلى 17 الساعة 09 UTC
ريح 10 عقدة من الشمال الشرقي تتزايد حتى 19 عقدة

TAF: URWW 162258Z 1700/1709 08003G08MPS 9999 SCT040 TEMPO 1700/1709 05005G10MPS

أرصاد الطقس والتوقعات من أكثر من 4000 مطار (تقارير الطقس للمطار METAR والتنبؤ بالطقس بالمطارTAF).

المحطات المتاحة هي النقط الصفراء والحمراء على الخريطة.

حرك المؤشر فوق النقطة لمعرفة اسم المحطة.

ثم انقر لمعرفة أرصاد وتوقعات الطقس.

لتغيير الخارطة: اضغط على الأزرار الخضراء مع رمز الصليب الأسود للتكبير. على الزر الأخضر مع شرطة للتصغير، أو على الأسهم الخضراء للخرائط المجاورة.


METAR-TAF: